createdAt,value
2018-12-02T00:00:30.167Z,81.35
2018-12-02T00:02:58.680Z,81.59
2018-12-02T00:05:27.079Z,81.53
2018-12-02T00:07:54.764Z,81.87
2018-12-02T00:10:23.287Z,81.58
2018-12-02T00:12:51.382Z,81.32
2018-12-02T00:15:20.608Z,81.66
2018-12-02T00:17:49.734Z,81.63
2018-12-02T00:20:17.475Z,81.37
2018-12-02T00:22:45.199Z,81.33
2018-12-02T00:25:14.315Z,81.33
2018-12-02T00:27:43.846Z,81.03
2018-12-02T00:30:15.210Z,80.97
2018-12-02T00:32:43.166Z,80.39
2018-12-02T00:35:12.492Z,80.40
2018-12-02T00:37:40.909Z,80.53
2018-12-02T00:40:14.126Z,80.64
2018-12-02T00:42:44.759Z,80.63
2018-12-02T00:45:14.482Z,80.17
2018-12-02T00:47:42.157Z,80.37
2018-12-02T00:50:11.463Z,79.93
2018-12-02T00:52:39.636Z,80.33
2018-12-02T00:55:12.347Z,79.70
2018-12-02T00:57:40.007Z,79.97
2018-12-02T01:00:12.757Z,79.84
2018-12-02T01:02:40.767Z,79.63
2018-12-02T01:05:12.219Z,79.85
2018-12-02T01:07:39.923Z,79.20
2018-12-02T01:10:10.922Z,79.53
2018-12-02T01:12:38.638Z,78.87
2018-12-02T01:15:09.815Z,79.60
2018-12-02T01:17:37.799Z,79.53
2018-12-02T01:20:09.937Z,79.02
2018-12-02T01:22:37.642Z,79.53
2018-12-02T01:25:07.163Z,79.63
2018-12-02T01:27:34.937Z,78.88
2018-12-02T01:30:02.876Z,78.88
2018-12-02T01:32:30.595Z,78.83
2018-12-02T01:34:58.391Z,79.15
2018-12-02T01:37:26.071Z,78.84
2018-12-02T01:39:53.761Z,78.90
2018-12-02T01:42:21.519Z,78.77
2018-12-02T01:44:49.247Z,79.05
2018-12-02T01:47:16.920Z,78.80
2018-12-02T01:49:44.615Z,79.12
2018-12-02T01:52:15.689Z,79.42
2018-12-02T01:54:43.354Z,79.79
2018-12-02T01:57:11.105Z,80.26
2018-12-02T01:59:38.763Z,80.80
2018-12-02T02:02:06.487Z,81.06
2018-12-02T02:04:34.151Z,81.49
2018-12-02T02:07:01.916Z,81.50
2018-12-02T02:09:29.689Z,81.76
2018-12-02T02:11:57.462Z,82.75
2018-12-02T02:14:25.177Z,82.52
2018-12-02T02:16:52.904Z,82.24
2018-12-02T02:19:20.567Z,82.35
2018-12-02T02:21:48.239Z,82.72
2018-12-02T02:24:15.964Z,82.96
2018-12-02T02:26:43.648Z,83.01
2018-12-02T02:29:11.437Z,83.35
2018-12-02T02:31:39.118Z,83.91
2018-12-02T02:34:06.807Z,83.03
2018-12-02T02:36:34.448Z,82.92
2018-12-02T02:39:02.255Z,83.73
2018-12-02T02:41:29.942Z,83.37
2018-12-02T02:43:57.672Z,83.37
2018-12-02T02:46:25.439Z,83.22
2018-12-02T02:48:53.185Z,83.60
2018-12-02T02:51:20.844Z,83.70
2018-12-02T02:53:48.537Z,83.69
2018-12-02T02:56:16.249Z,83.22
2018-12-02T02:58:43.891Z,83.64
2018-12-02T03:01:11.617Z,83.29
2018-12-02T03:03:39.360Z,82.83
2018-12-02T03:06:09.434Z,83.65
2018-12-02T03:08:37.361Z,83.21
2018-12-02T03:11:06.106Z,83.16
2018-12-02T03:13:33.834Z,83.48
2018-12-02T03:16:02.247Z,82.92
2018-12-02T03:18:29.918Z,82.65
2018-12-02T03:20:57.579Z,83.08
2018-12-02T03:23:25.307Z,82.87
2018-12-02T03:25:53.465Z,83.05
2018-12-02T03:28:21.137Z,82.95
2018-12-02T03:30:48.849Z,83.16
2018-12-02T03:33:16.588Z,82.98
2018-12-02T03:35:45.503Z,82.81
2018-12-02T03:38:13.259Z,83.10
2018-12-02T03:40:40.915Z,82.85
2018-12-02T03:43:09.479Z,82.69
2018-12-02T03:45:37.197Z,82.65
2018-12-02T03:48:05.155Z,82.45
2018-12-02T03:50:32.789Z,82.69
2018-12-02T03:53:00.472Z,82.98
2018-12-02T03:55:28.135Z,82.47
2018-12-02T03:57:55.866Z,82.61
2018-12-02T04:00:24.635Z,82.45
2018-12-02T04:02:54.347Z,82.44
2018-12-02T04:05:23.607Z,82.86
2018-12-02T04:07:51.626Z,82.77
2018-12-02T04:10:20.150Z,82.88
2018-12-02T04:12:49.268Z,83.13
2018-12-02T04:15:18.473Z,83.22
2018-12-02T04:17:46.371Z,83.35
2018-12-02T04:20:16.202Z,84.06
2018-12-02T04:22:45.064Z,84.19
2018-12-02T04:25:21.913Z,84.39
2018-12-02T04:27:50.366Z,85.02
2018-12-02T04:30:20.145Z,85.26
2018-12-02T04:32:49.283Z,84.92
2018-12-02T04:35:22.215Z,85.44
2018-12-02T04:37:49.939Z,85.73
2018-12-02T04:40:17.639Z,85.19
2018-12-02T04:42:45.372Z,85.39
2018-12-02T04:45:15.323Z,85.28
2018-12-02T04:47:43.135Z,85.92
2018-12-02T04:50:25.839Z,85.90
2018-12-02T04:52:53.550Z,86.12
2018-12-02T04:55:21.359Z,84.62
2018-12-02T04:57:49.139Z,84.99
2018-12-02T05:00:18.180Z,85.49
2018-12-02T05:02:47.389Z,85.75
2018-12-02T05:05:20.361Z,85.57
2018-12-02T05:07:48.026Z,85.70
2018-12-02T05:10:17.894Z,85.96
2018-12-02T05:12:45.666Z,86.02
2018-12-02T05:15:14.805Z,86.32
2018-12-02T05:17:42.538Z,86.15
2018-12-02T05:20:13.515Z,85.55
2018-12-02T05:22:41.227Z,85.93
2018-12-02T05:25:17.318Z,85.83
2018-12-02T05:27:40.115Z,85.80
2018-12-02T05:30:18.812Z,85.53
2018-12-02T05:32:47.971Z,85.47
2018-12-02T05:35:15.711Z,86.27
2018-12-02T05:37:43.484Z,86.27
2018-12-02T05:40:13.626Z,86.70
2018-12-02T05:42:41.474Z,85.69
2018-12-02T05:45:14.027Z,86.61
2018-12-02T05:47:41.805Z,85.47
2018-12-02T05:50:16.171Z,86.08
2018-12-02T05:52:45.507Z,85.87
2018-12-02T05:55:15.080Z,85.58
2018-12-02T05:57:42.996Z,86.62
2018-12-02T06:00:17.232Z,86.75
2018-12-02T06:02:44.952Z,86.62
2018-12-02T06:05:12.771Z,86.15
2018-12-02T06:07:42.276Z,86.14
2018-12-02T06:10:17.103Z,86.45
2018-12-02T06:12:44.780Z,86.42
2018-12-02T06:15:18.521Z,87.04
2018-12-02T06:17:46.612Z,86.82
2018-12-02T06:20:16.683Z,86.97
2018-12-02T06:22:44.636Z,87.03
2018-12-02T06:25:12.464Z,87.07
2018-12-02T06:27:40.151Z,87.09
2018-12-02T06:30:15.415Z,87.55
2018-12-02T06:32:43.463Z,87.20
2018-12-02T06:35:12.652Z,87.17
2018-12-02T06:37:40.387Z,87.57
2018-12-02T06:40:14.783Z,87.73
2018-12-02T06:42:42.566Z,87.55
2018-12-02T06:45:11.571Z,87.51
2018-12-02T06:47:39.273Z,88.23
2018-12-02T06:50:22.237Z,87.82
2018-12-02T06:52:50.274Z,87.29
2018-12-02T06:56:03.015Z,87.49
2018-12-02T06:58:44.073Z,87.77
2018-12-02T07:03:34.519Z,87.75
2018-12-02T07:06:02.200Z,88.17
2018-12-02T07:08:29.939Z,87.54
2018-12-02T07:10:57.609Z,88.25
2018-12-02T07:13:25.258Z,88.12
2018-12-02T07:15:52.992Z,88.74
2018-12-02T07:18:28.713Z,88.02
2018-12-02T07:21:00.983Z,88.93
2018-12-02T07:23:41.621Z,88.09
2018-12-02T07:26:14.857Z,88.37
2018-12-02T07:28:42.596Z,88.30
2018-12-02T07:31:14.225Z,88.71
2018-12-02T07:33:42.021Z,88.85
2018-12-02T07:36:09.823Z,88.56
2018-12-02T07:38:54.051Z,88.58
2018-12-02T07:41:21.914Z,88.05
2018-12-02T07:43:50.290Z,88.51
2018-12-02T07:46:18.057Z,89.00
2018-12-02T07:48:45.792Z,88.91
2018-12-02T07:51:13.561Z,88.85
2018-12-02T07:53:41.308Z,88.85
2018-12-02T07:56:09.090Z,88.15
2018-12-02T07:58:36.871Z,88.31
2018-12-02T08:01:04.786Z,88.31
2018-12-02T08:03:32.639Z,89.19
2018-12-02T08:06:00.869Z,88.31
2018-12-02T08:08:28.643Z,88.62
2018-12-02T08:10:56.339Z,88.88
2018-12-02T08:13:24.091Z,88.77
2018-12-02T08:15:51.852Z,89.18
2018-12-02T08:18:19.571Z,89.02
2018-12-02T08:20:47.315Z,88.94
2018-12-02T08:23:15.025Z,89.20
2018-12-02T08:25:42.782Z,89.41
2018-12-02T08:28:10.688Z,89.67
2018-12-02T08:30:38.383Z,89.43
2018-12-02T08:33:06.161Z,88.75
2018-12-02T08:35:33.803Z,88.74
2018-12-02T08:38:05.491Z,89.15
2018-12-02T08:40:33.295Z,89.15
2018-12-02T08:43:01.047Z,89.05
2018-12-02T08:45:28.747Z,88.64
2018-12-02T08:47:56.439Z,89.21
2018-12-02T08:50:24.130Z,89.14
2018-12-02T08:52:52.280Z,89.00
2018-12-02T08:55:20.739Z,88.89
2018-12-02T08:57:50.265Z,88.74
2018-12-02T09:00:20.218Z,89.49
2018-12-02T09:02:53.963Z,89.35
2018-12-02T09:05:21.787Z,89.09
2018-12-02T09:07:49.968Z,89.61
2018-12-02T09:10:26.132Z,89.33
2018-12-02T09:12:57.607Z,89.44
2018-12-02T09:15:25.314Z,89.85
2018-12-02T09:17:53.007Z,89.43
2018-12-02T09:20:24.847Z,89.44
2018-12-02T09:22:52.626Z,88.85
2018-12-02T09:25:20.335Z,89.51
2018-12-02T09:27:48.519Z,89.17
2018-12-02T09:30:19.927Z,89.34
2018-12-02T09:32:47.595Z,88.98
2018-12-02T09:35:15.283Z,89.39
2018-12-02T09:37:43.065Z,88.91
2018-12-02T09:40:13.790Z,89.18
2018-12-02T09:42:44.143Z,89.16
2018-12-02T09:45:13.845Z,89.08
2018-12-02T09:47:41.579Z,89.32
2018-12-02T09:50:10.971Z,89.16
2018-12-02T09:52:38.699Z,89.58
2018-12-02T09:55:10.119Z,89.07
2018-12-02T09:57:38.078Z,89.26
2018-12-02T10:00:15.440Z,89.37
2018-12-02T10:02:47.864Z,89.48
2018-12-02T10:05:19.087Z,89.41
2018-12-02T10:07:50.918Z,89.54
2018-12-02T10:10:25.282Z,89.51
2018-12-02T10:13:04.628Z,90.09
2018-12-02T10:15:36.554Z,89.56
2018-12-02T10:18:07.979Z,89.62
2018-12-02T10:20:39.359Z,89.38
2018-12-02T10:23:10.991Z,89.51
2018-12-02T10:25:39.167Z,89.30
2018-12-02T10:28:10.618Z,89.78
2018-12-02T10:30:43.593Z,89.82
2018-12-02T10:33:14.930Z,89.47
2018-12-02T10:35:45.871Z,89.59
2018-12-02T10:38:17.578Z,89.56
2018-12-02T10:40:49.080Z,89.93
2018-12-02T10:43:20.766Z,90.08
2018-12-02T10:45:52.503Z,90.07
2018-12-02T10:48:23.476Z,90.12
2018-12-02T10:50:54.000Z,89.98
2018-12-02T10:53:26.096Z,90.35
2018-12-02T10:55:59.211Z,89.70
2018-12-02T10:58:37.974Z,89.88
2018-12-02T11:01:15.246Z,90.26
2018-12-02T11:03:47.981Z,90.20
2018-12-02T11:06:19.822Z,89.94
2018-12-02T11:08:52.303Z,90.45
2018-12-02T11:11:23.825Z,90.10
2018-12-02T11:13:51.473Z,90.20
2018-12-02T11:16:19.157Z,90.58
2018-12-02T11:18:46.843Z,90.16
2018-12-02T11:21:14.563Z,90.30
2018-12-02T11:23:42.307Z,90.36
2018-12-02T11:26:10.059Z,90.33
2018-12-02T11:28:37.739Z,90.29
2018-12-02T11:31:06.543Z,90.36
2018-12-02T11:33:34.307Z,90.18
2018-12-02T11:36:01.955Z,90.16
2018-12-02T11:38:29.595Z,90.55
2018-12-02T11:40:57.567Z,90.61
2018-12-02T11:43:26.091Z,90.78
2018-12-02T11:45:53.768Z,90.42
2018-12-02T11:48:21.547Z,90.42
2018-12-02T11:50:50.704Z,90.68
2018-12-02T11:53:18.071Z,90.27
2018-12-02T11:55:45.819Z,90.28
2018-12-02T11:58:13.543Z,90.24
2018-12-02T12:00:41.766Z,90.33
2018-12-02T12:03:09.444Z,90.49
2018-12-02T12:05:37.988Z,90.33
2018-12-02T12:08:08.178Z,90.43
2018-12-02T12:10:36.050Z,90.26
2018-12-02T12:13:03.792Z,90.16
2018-12-02T12:15:31.987Z,90.16
2018-12-02T12:18:00.067Z,90.35
2018-12-02T12:20:33.808Z,89.72
2018-12-02T12:23:01.527Z,90.22
2018-12-02T12:25:29.222Z,90.37
2018-12-02T12:27:57.835Z,89.67
2018-12-02T12:30:28.195Z,89.38
2018-12-02T12:32:55.931Z,89.69
2018-12-02T12:35:24.391Z,90.07
2018-12-02T12:37:52.147Z,89.80
2018-12-02T12:40:27.555Z,89.82
2018-12-02T12:43:20.914Z,89.46
2018-12-02T12:45:48.703Z,89.88
2018-12-02T12:48:16.372Z,89.83
2018-12-02T12:50:44.139Z,89.71
2018-12-02T12:53:12.406Z,89.83
2018-12-02T12:55:40.095Z,89.94
2018-12-02T12:58:08.686Z,89.78
2018-12-02T13:00:36.423Z,89.59
2018-12-02T13:03:04.531Z,89.47
2018-12-02T13:05:32.227Z,89.42
2018-12-02T13:08:00.011Z,89.60
2018-12-02T13:10:27.654Z,89.50
2018-12-02T13:12:55.323Z,89.57
2018-12-02T13:15:23.428Z,88.98
2018-12-02T13:17:56.649Z,89.01
2018-12-02T13:20:27.718Z,89.11
2018-12-02T13:22:55.448Z,89.76
2018-12-02T13:25:23.127Z,89.42
2018-12-02T13:27:50.835Z,89.34
2018-12-02T13:30:19.485Z,89.37
2018-12-02T13:32:48.842Z,89.15
2018-12-02T13:35:16.740Z,89.16
2018-12-02T13:37:44.621Z,89.08
2018-12-02T13:40:19.175Z,89.05
2018-12-02T13:43:05.826Z,88.96
2018-12-02T13:45:36.525Z,89.58
2018-12-02T13:48:05.555Z,89.12
2018-12-02T13:50:33.311Z,89.25
2018-12-02T13:53:01.012Z,89.73
2018-12-02T13:55:30.513Z,89.29
2018-12-02T13:57:59.580Z,89.47
2018-12-02T14:00:28.194Z,89.75
2018-12-02T14:03:03.739Z,89.12
2018-12-02T14:05:35.337Z,89.51
2018-12-02T14:08:03.190Z,89.36
2018-12-02T14:10:31.077Z,89.41
2018-12-02T14:13:06.109Z,89.97
2018-12-02T14:16:22.465Z,89.61
2018-12-02T14:18:51.967Z,89.84
2018-12-02T14:21:20.958Z,89.89
2018-12-02T14:23:49.264Z,89.82
2018-12-02T14:26:22.279Z,89.90
2018-12-02T14:28:59.215Z,89.76
2018-12-02T14:31:29.980Z,89.69
2018-12-02T14:33:58.778Z,89.64
2018-12-02T14:36:27.135Z,89.88
2018-12-02T14:38:55.465Z,89.91
2018-12-02T14:41:23.175Z,89.80
2018-12-02T14:43:50.843Z,90.09
2018-12-02T14:46:18.567Z,90.04
2018-12-02T14:48:46.211Z,90.11
2018-12-02T14:51:13.875Z,89.86
2018-12-02T14:53:42.067Z,90.12
2018-12-02T14:56:10.244Z,89.98
2018-12-02T14:58:38.315Z,89.81
2018-12-02T15:01:07.328Z,90.19
2018-12-02T15:03:35.255Z,89.85
2018-12-02T15:06:03.207Z,90.05
2018-12-02T15:08:34.954Z,89.90
2018-12-02T15:11:04.326Z,90.12
2018-12-02T15:13:33.427Z,89.83
2018-12-02T15:16:01.982Z,90.32
2018-12-02T15:18:29.707Z,89.51
2018-12-02T15:20:58.694Z,89.65
2018-12-02T15:23:27.558Z,89.69
2018-12-02T15:25:56.253Z,90.08
2018-12-02T15:28:24.008Z,89.63
2018-12-02T15:30:53.630Z,89.60
2018-12-02T15:33:21.907Z,89.50
2018-12-02T15:35:51.299Z,89.89
2018-12-02T15:38:19.606Z,89.61
2018-12-02T15:40:47.399Z,89.89
2018-12-02T15:43:15.897Z,89.19
2018-12-02T15:45:43.844Z,89.53
2018-12-02T15:48:11.909Z,89.64
2018-12-02T15:50:43.247Z,89.50
2018-12-02T15:53:11.934Z,89.81
2018-12-02T15:55:41.103Z,89.92
2018-12-02T15:58:11.462Z,89.65
2018-12-02T16:00:43.337Z,89.83
2018-12-02T16:03:11.693Z,89.71
2018-12-02T16:05:40.302Z,89.56
2018-12-02T16:08:10.199Z,89.58
2018-12-02T16:10:39.485Z,89.51
2018-12-02T16:13:10.367Z,88.95
2018-12-02T16:15:38.453Z,89.33
2018-12-02T16:18:08.708Z,89.36
2018-12-02T16:20:46.635Z,89.59
2018-12-02T16:23:17.888Z,88.90
2018-12-02T16:25:45.519Z,88.86
2018-12-02T16:28:13.201Z,89.35
2018-12-02T16:30:41.315Z,89.42
2018-12-02T16:33:09.111Z,89.59
2018-12-02T16:35:36.908Z,89.33
2018-12-02T16:38:06.628Z,89.19
2018-12-02T16:40:34.363Z,89.64
2018-12-02T16:43:02.137Z,89.16
2018-12-02T16:45:29.907Z,89.37
2018-12-02T16:47:58.150Z,89.85
2018-12-02T16:50:32.718Z,89.55
2018-12-02T16:53:08.088Z,89.35
2018-12-02T16:55:40.770Z,89.18
2018-12-02T16:58:16.771Z,89.49
2018-12-02T17:00:53.884Z,89.15
2018-12-02T17:03:21.599Z,89.39
2018-12-02T17:05:49.291Z,89.42
2018-12-02T17:08:17.021Z,88.92
2018-12-02T17:10:50.545Z,89.24
2018-12-02T17:13:12.341Z,88.78
2018-12-02T17:15:40.071Z,89.14
2018-12-02T17:18:08.208Z,89.13
2018-12-02T17:20:35.923Z,89.13
2018-12-02T17:23:03.724Z,88.95
2018-12-02T17:25:31.380Z,88.98
2018-12-02T17:27:59.075Z,89.24
2018-12-02T17:30:37.192Z,89.27
2018-12-02T17:33:05.780Z,88.90
2018-12-02T17:35:33.447Z,89.12
2018-12-02T17:38:01.106Z,88.98
2018-12-02T17:40:28.829Z,89.11
2018-12-02T17:42:56.486Z,88.96
2018-12-02T17:45:24.215Z,89.36
2018-12-02T17:47:51.928Z,88.80
2018-12-02T17:50:19.581Z,88.98
2018-12-02T17:52:48.619Z,89.10
2018-12-02T17:55:17.403Z,88.82
2018-12-02T17:57:45.179Z,88.93
2018-12-02T18:00:21.852Z,88.94
2018-12-02T18:02:49.636Z,89.41
2018-12-02T18:05:20.264Z,89.45
2018-12-02T18:07:48.466Z,89.53
2018-12-02T18:10:18.356Z,89.60
2018-12-02T18:12:46.105Z,90.58
2018-12-02T18:15:15.958Z,90.16
2018-12-02T18:17:43.927Z,89.97
2018-12-02T18:20:15.282Z,89.73
2018-12-02T18:22:43.399Z,89.65
2018-12-02T18:25:13.757Z,89.53
2018-12-02T18:27:41.623Z,90.19
2018-12-02T18:30:19.143Z,90.19
2018-12-02T18:32:49.390Z,90.01
2018-12-02T18:35:34.292Z,89.48
2018-12-02T18:38:13.646Z,89.78
2018-12-02T18:40:46.863Z,89.69
2018-12-02T18:43:15.662Z,89.63
2018-12-02T18:45:43.680Z,90.15
2018-12-02T18:48:11.728Z,90.53
2018-12-02T18:50:39.836Z,90.52
2018-12-02T18:53:07.557Z,90.46
2018-12-02T18:55:35.319Z,90.61
2018-12-02T18:58:03.071Z,90.82
2018-12-02T19:00:36.431Z,90.56
2018-12-02T19:03:04.129Z,90.16
2018-12-02T19:05:32.958Z,90.43
2018-12-02T19:07:59.514Z,90.50
2018-12-02T19:10:27.945Z,90.42
2018-12-02T19:12:55.971Z,90.72
2018-12-02T19:15:23.906Z,90.36
2018-12-02T19:17:51.845Z,90.72
2018-12-02T19:20:26.800Z,90.75
2018-12-02T19:22:56.599Z,90.51
2018-12-02T19:25:26.777Z,90.53
2018-12-02T19:27:54.444Z,90.64
2018-12-02T19:30:22.391Z,90.06
2018-12-02T19:32:50.169Z,90.68
2018-12-02T19:35:25.132Z,90.27
2018-12-02T19:37:55.450Z,89.97
2018-12-02T19:40:23.191Z,90.37
2018-12-02T19:42:50.903Z,90.09
2018-12-02T19:45:20.021Z,90.01
2018-12-02T19:47:47.699Z,90.13
2018-12-02T19:50:17.381Z,90.30
2018-12-02T19:52:45.439Z,90.40
2018-12-02T19:55:13.616Z,90.78
2018-12-02T19:57:43.372Z,90.23
2018-12-02T20:00:20.612Z,90.48
2018-12-02T20:02:48.901Z,90.23
2018-12-02T20:05:16.707Z,90.20
2018-12-02T20:07:49.463Z,90.58
2018-12-02T20:10:19.888Z,90.44
2018-12-02T20:12:47.963Z,90.15
2018-12-02T20:15:16.732Z,89.96
2018-12-02T20:17:45.011Z,90.06
2018-12-02T20:20:22.035Z,90.67
2018-12-02T20:22:50.629Z,90.23
2018-12-02T20:25:20.032Z,90.68
2018-12-02T20:27:48.223Z,90.89
2018-12-02T20:30:18.864Z,90.80
2018-12-02T20:32:46.676Z,91.05
2018-12-02T20:35:14.617Z,91.39
2018-12-02T20:37:42.575Z,91.03
2018-12-02T20:40:16.147Z,90.55
2018-12-02T20:42:45.127Z,91.02
2018-12-02T20:45:14.311Z,91.13
2018-12-02T20:47:42.177Z,90.98
2018-12-02T20:50:12.667Z,91.46
2018-12-02T20:52:44.008Z,90.88
2018-12-02T20:55:14.583Z,91.15
2018-12-02T20:57:42.282Z,90.41
2018-12-02T21:00:14.843Z,90.46
2018-12-02T21:02:44.550Z,90.53
2018-12-02T21:05:29.619Z,90.37
2018-12-02T21:07:57.439Z,90.70
2018-12-02T21:10:25.180Z,91.03
2018-12-02T21:12:52.911Z,91.13
2018-12-02T21:15:20.633Z,90.60
2018-12-02T21:17:48.304Z,90.81
2018-12-02T21:20:16.030Z,90.92
2018-12-02T21:22:43.790Z,91.11
2018-12-02T21:25:14.935Z,90.57
2018-12-02T21:27:42.956Z,91.01
2018-12-02T21:30:21.596Z,90.73
2018-12-02T21:32:49.360Z,90.50
2018-12-02T21:35:17.084Z,90.95
2018-12-02T21:37:45.385Z,91.19
2018-12-02T21:40:15.262Z,91.33
2018-12-02T21:42:42.997Z,91.21
2018-12-02T21:45:13.241Z,90.79
2018-12-02T21:47:45.212Z,91.10
2018-12-02T21:50:16.175Z,90.76
2018-12-02T21:52:43.990Z,90.67
2018-12-02T21:55:11.731Z,90.22
2018-12-02T21:57:39.403Z,90.90
2018-12-02T22:00:20.959Z,91.16
2018-12-02T22:02:50.094Z,91.37
2018-12-02T22:05:17.905Z,90.64
2018-12-02T22:07:45.787Z,90.43
2018-12-02T22:10:21.403Z,90.56
2018-12-02T22:12:49.084Z,90.71
2018-12-02T22:15:16.795Z,91.21
2018-12-02T22:17:44.433Z,91.06
2018-12-02T22:20:14.437Z,91.19
2018-12-02T22:22:42.224Z,91.20
2018-12-02T22:25:16.740Z,90.68
2018-12-02T22:27:46.238Z,91.31
2018-12-02T22:30:21.542Z,90.66
2018-12-02T22:32:49.204Z,91.08
2018-12-02T22:35:17.257Z,90.75
2018-12-02T22:37:45.851Z,91.01
2018-12-02T22:40:22.352Z,91.10
2018-12-02T22:42:51.366Z,91.49
2018-12-02T22:45:23.672Z,90.84
2018-12-02T22:47:51.484Z,91.22
2018-12-02T22:50:20.681Z,91.12
2018-12-02T22:52:50.209Z,90.33
2018-12-02T22:55:17.894Z,91.11
2018-12-02T22:57:45.619Z,90.84
2018-12-02T23:00:19.501Z,90.95
2018-12-02T23:02:56.050Z,91.14
2018-12-02T23:05:23.839Z,91.28
2018-12-02T23:07:51.592Z,91.08
2018-12-02T23:10:19.401Z,91.52
2018-12-02T23:12:47.175Z,91.68
2018-12-02T23:15:14.951Z,91.18
2018-12-02T23:17:42.713Z,91.74
2018-12-02T23:20:11.275Z,91.59
2018-12-02T23:22:39.080Z,91.28
2018-12-02T23:25:09.318Z,91.18
2018-12-02T23:27:37.037Z,91.11
2018-12-02T23:30:11.548Z,91.51
2018-12-02T23:32:39.274Z,91.44
2018-12-02T23:35:07.471Z,91.60
2018-12-02T23:37:35.167Z,91.31
2018-12-02T23:40:03.112Z,91.33
2018-12-02T23:42:30.931Z,91.89
2018-12-02T23:44:58.623Z,91.86
2018-12-02T23:47:26.343Z,91.83
2018-12-02T23:49:54.101Z,91.95
2018-12-02T23:52:21.787Z,91.79
2018-12-02T23:54:49.563Z,92.28
2018-12-02T23:57:17.300Z,92.28
2018-12-02T23:59:45.091Z,92.43
